createdAt,value
2023-03-22T00:01:45.018Z,7.44
2023-03-22T00:04:12.219Z,7.47
2023-03-22T00:06:39.464Z,7.48
2023-03-22T00:09:06.713Z,7.47
2023-03-22T00:11:35.302Z,7.50
2023-03-22T00:14:02.478Z,7.50
2023-03-22T00:16:29.759Z,7.49
2023-03-22T00:18:57.004Z,7.45
2023-03-22T00:21:24.210Z,7.38
2023-03-22T00:23:51.463Z,7.30
2023-03-22T00:26:18.658Z,7.29
2023-03-22T00:28:47.134Z,7.26
2023-03-22T00:31:14.990Z,7.27
2023-03-22T00:33:43.271Z,7.27
2023-03-22T00:36:12.077Z,7.11
2023-03-22T00:38:44.002Z,7.05
2023-03-22T00:41:14.102Z,7.06
2023-03-22T00:43:42.196Z,6.99
2023-03-22T00:46:11.552Z,6.95
2023-03-22T00:48:39.298Z,6.94
2023-03-22T00:51:07.352Z,6.89
2023-03-22T00:53:35.197Z,6.85
2023-03-22T00:56:02.897Z,6.85
2023-03-22T00:58:37.286Z,6.82
2023-03-22T01:01:05.011Z,6.79
2023-03-22T01:03:34.407Z,6.71
2023-03-22T01:06:02.214Z,6.58
2023-03-22T01:08:29.710Z,6.55
2023-03-22T01:10:56.966Z,6.49
2023-03-22T01:13:24.151Z,6.39
2023-03-22T01:15:51.767Z,6.34
2023-03-22T01:18:19.086Z,6.30
2023-03-22T01:20:47.662Z,6.23
2023-03-22T01:23:15.008Z,6.24
2023-03-22T01:25:42.364Z,6.26
2023-03-22T01:28:09.613Z,6.31
2023-03-22T01:30:39.355Z,6.26
2023-03-22T01:33:07.383Z,6.29
2023-03-22T01:35:34.826Z,6.27
2023-03-22T01:38:03.957Z,6.27
2023-03-22T01:40:33.611Z,6.22
2023-03-22T01:43:02.142Z,6.27
2023-03-22T01:45:36.907Z,6.21
2023-03-22T01:48:09.808Z,6.22
2023-03-22T01:50:41.224Z,6.22
2023-03-22T01:53:13.402Z,6.26
2023-03-22T01:55:41.402Z,6.23
2023-03-22T01:58:12.759Z,6.30
2023-03-22T02:00:50.516Z,6.24
2023-03-22T02:03:43.324Z,6.24
2023-03-22T02:06:12.249Z,6.29
2023-03-22T02:08:41.064Z,6.31
2023-03-22T02:11:16.620Z,6.30
2023-03-22T02:14:23.769Z,6.28
2023-03-22T02:17:16.616Z,6.37
2023-03-22T02:20:22.572Z,6.46
2023-03-22T02:23:27.659Z,6.50
2023-03-22T02:26:18.922Z,6.53
2023-03-22T02:28:53.476Z,6.50
2023-03-22T02:31:39.491Z,6.43
2023-03-22T02:34:32.165Z,6.38
2023-03-22T02:37:13.637Z,6.32
2023-03-22T02:39:49.617Z,6.18
2023-03-22T02:42:27.297Z,6.21
2023-03-22T02:45:01.726Z,6.27
2023-03-22T02:47:39.345Z,6.24
2023-03-22T02:50:14.035Z,6.24
2023-03-22T02:52:46.179Z,6.13
2023-03-22T02:55:20.133Z,6.15
2023-03-22T02:57:50.158Z,6.08
2023-03-22T03:00:18.957Z,6.10
2023-03-22T03:02:51.230Z,6.18
2023-03-22T03:05:20.262Z,6.22
2023-03-22T03:07:51.160Z,6.29
2023-03-22T03:10:21.922Z,6.27
2023-03-22T03:12:49.185Z,6.26
2023-03-22T03:15:18.632Z,6.30
2023-03-22T03:18:02.848Z,6.30
2023-03-22T03:20:40.833Z,6.35
2023-03-22T03:23:16.482Z,6.33
2023-03-22T03:25:54.199Z,6.32
2023-03-22T03:28:27.120Z,6.26
2023-03-22T03:31:00.648Z,6.21
2023-03-22T03:33:30.261Z,6.24
2023-03-22T03:36:02.700Z,6.27
2023-03-22T03:38:33.723Z,6.13
2023-03-22T03:41:04.955Z,6.13
2023-03-22T03:43:34.268Z,6.13
2023-03-22T03:46:01.951Z,6.04
2023-03-22T03:48:33.132Z,6.02
2023-03-22T03:51:01.713Z,6.01
2023-03-22T03:53:29.778Z,6.03
2023-03-22T03:55:57.048Z,6.03
2023-03-22T03:58:26.608Z,6.03
2023-03-22T04:00:53.777Z,6.00
2023-03-22T04:03:43.349Z,6.04
2023-03-22T04:06:13.308Z,5.99
2023-03-22T04:08:45.266Z,5.85
2023-03-22T04:11:14.315Z,5.88
2023-03-22T04:13:44.118Z,5.83
2023-03-22T04:16:16.025Z,5.75
2023-03-22T04:18:43.320Z,5.46
2023-03-22T04:21:10.513Z,5.39
2023-03-22T04:23:47.862Z,5.51
2023-03-22T04:26:16.282Z,5.50
2023-03-22T04:28:55.935Z,5.37
2023-03-22T04:31:23.389Z,5.42
2023-03-22T04:34:00.189Z,5.28
2023-03-22T04:36:38.085Z,5.29
2023-03-22T04:39:18.385Z,5.32
2023-03-22T04:41:55.105Z,5.25
2023-03-22T04:44:23.641Z,5.28
2023-03-22T04:46:51.627Z,5.30
2023-03-22T04:49:18.916Z,5.34
2023-03-22T04:51:47.454Z,5.37
2023-03-22T04:54:30.857Z,5.40
2023-03-22T04:56:58.702Z,5.34
2023-03-22T04:59:29.543Z,5.33
2023-03-22T05:01:58.751Z,5.31
2023-03-22T05:04:28.010Z,5.20
2023-03-22T05:07:04.529Z,5.20
2023-03-22T05:09:42.268Z,5.13
2023-03-22T05:12:09.976Z,5.17
2023-03-22T05:14:57.168Z,5.17
2023-03-22T05:17:29.745Z,5.15
2023-03-22T05:19:58.416Z,4.86
2023-03-22T05:22:25.781Z,4.81
2023-03-22T05:24:54.704Z,4.68
2023-03-22T05:27:24.974Z,4.72
2023-03-22T05:29:52.201Z,4.74
2023-03-22T05:32:26.150Z,4.73
2023-03-22T05:34:56.112Z,4.70
2023-03-22T05:37:30.196Z,4.77
2023-03-22T05:39:58.271Z,4.85
2023-03-22T05:42:36.236Z,4.86
2023-03-22T05:45:10.653Z,4.91
2023-03-22T05:47:39.663Z,4.99
2023-03-22T05:50:16.656Z,5.04
2023-03-22T05:52:44.045Z,5.05
2023-03-22T05:55:21.248Z,5.11
2023-03-22T05:57:53.142Z,5.15
2023-03-22T06:00:21.195Z,5.22
2023-03-22T06:03:18.497Z,5.34
2023-03-22T06:05:51.703Z,5.36
2023-03-22T06:08:24.181Z,5.33
2023-03-22T06:10:53.916Z,5.31
2023-03-22T06:13:21.792Z,5.36
2023-03-22T06:15:49.613Z,5.44
2023-03-22T06:18:24.600Z,5.57
2023-03-22T06:21:00.684Z,5.58
2023-03-22T06:23:28.267Z,5.57
2023-03-22T06:25:55.478Z,5.56
2023-03-22T06:28:23.369Z,5.63
2023-03-22T06:30:53.768Z,5.79
2023-03-22T06:33:45.390Z,5.77
2023-03-22T06:36:29.365Z,5.95
2023-03-22T06:39:15.032Z,6.06
2023-03-22T06:41:44.840Z,6.13
2023-03-22T06:44:12.412Z,6.29
2023-03-22T06:46:45.344Z,6.34
2023-03-22T06:49:23.570Z,6.40
2023-03-22T06:51:53.476Z,6.50
2023-03-22T06:54:21.262Z,6.60
2023-03-22T06:56:48.572Z,6.62
2023-03-22T06:59:16.656Z,6.63
2023-03-22T07:01:44.655Z,6.79
2023-03-22T07:04:12.613Z,6.92
2023-03-22T07:06:41.273Z,6.95
2023-03-22T07:09:08.458Z,6.84
2023-03-22T07:11:37.188Z,6.99
2023-03-22T07:14:04.499Z,7.06
2023-03-22T07:16:49.744Z,7.09
2023-03-22T07:19:18.813Z,7.18
2023-03-22T07:21:48.520Z,7.25
2023-03-22T07:24:16.766Z,7.32
2023-03-22T07:26:45.401Z,7.54
2023-03-22T07:29:17.650Z,7.64
2023-03-22T07:31:44.869Z,7.71
2023-03-22T07:34:16.524Z,7.85
2023-03-22T07:36:56.963Z,7.78
2023-03-22T07:39:24.713Z,7.65
2023-03-22T07:41:52.163Z,7.77
2023-03-22T07:44:25.703Z,7.73
2023-03-22T07:47:18.728Z,7.97
2023-03-22T07:49:56.322Z,7.99
2023-03-22T07:52:31.844Z,8.25
2023-03-22T07:54:59.128Z,8.40
2023-03-22T07:57:26.337Z,8.50
2023-03-22T07:59:56.997Z,8.72
2023-03-22T08:02:27.608Z,8.73
2023-03-22T08:04:56.803Z,8.68
2023-03-22T08:07:35.421Z,8.84
2023-03-22T08:10:03.728Z,9.04
2023-03-22T08:12:31.226Z,8.89
2023-03-22T08:15:07.957Z,9.07
2023-03-22T08:17:35.777Z,9.15
2023-03-22T08:20:05.108Z,9.38
2023-03-22T08:22:45.521Z,9.69
2023-03-22T08:25:35.856Z,9.77
2023-03-22T08:28:09.573Z,10.01
2023-03-22T08:30:37.672Z,10.45
2023-03-22T08:33:05.387Z,10.87
2023-03-22T08:35:33.543Z,10.98
2023-03-22T08:38:02.076Z,11.42
2023-03-22T08:40:38.108Z,11.87
2023-03-22T08:43:05.487Z,12.16
2023-03-22T08:45:32.689Z,12.43
2023-03-22T08:48:08.071Z,12.44
2023-03-22T08:50:52.975Z,12.50
2023-03-22T08:53:31.939Z,12.69
2023-03-22T08:56:19.049Z,12.85
2023-03-22T08:58:57.673Z,12.99
2023-03-22T09:01:36.725Z,13.19
2023-03-22T09:04:06.022Z,13.25
2023-03-22T09:06:33.318Z,13.17
2023-03-22T09:09:02.112Z,13.40
2023-03-22T09:11:29.437Z,13.48
2023-03-22T09:13:56.691Z,13.56
2023-03-22T09:16:24.044Z,13.93
2023-03-22T09:18:51.432Z,14.22
2023-03-22T09:21:21.595Z,14.43
2023-03-22T09:23:52.969Z,14.51
2023-03-22T09:26:27.286Z,14.65
2023-03-22T09:28:55.513Z,14.48
2023-03-22T09:31:22.808Z,14.31
2023-03-22T09:34:01.522Z,13.87
2023-03-22T09:36:28.762Z,14.00
2023-03-22T09:38:55.937Z,14.18
2023-03-22T09:41:32.782Z,13.86
2023-03-22T09:44:05.377Z,14.19
2023-03-22T09:46:36.967Z,14.24
2023-03-22T09:49:10.309Z,14.25
2023-03-22T09:51:40.321Z,14.15
2023-03-22T09:54:16.095Z,14.35
2023-03-22T09:56:49.384Z,14.40
2023-03-22T09:59:25.078Z,14.28
2023-03-22T10:01:58.331Z,14.76
2023-03-22T10:04:40.926Z,15.41
2023-03-22T10:07:18.529Z,15.64
2023-03-22T10:09:52.025Z,15.38
2023-03-22T10:12:26.350Z,15.50
2023-03-22T10:15:02.426Z,15.16
2023-03-22T10:17:30.223Z,14.94
2023-03-22T10:20:00.804Z,15.00
2023-03-22T10:22:33.242Z,15.12
2023-03-22T10:25:01.262Z,15.21
2023-03-22T10:27:32.913Z,15.30
2023-03-22T10:30:01.198Z,15.80
2023-03-22T10:32:36.283Z,15.82
2023-03-22T10:35:06.659Z,15.85
2023-03-22T10:37:35.785Z,15.73
2023-03-22T10:40:06.075Z,15.54
2023-03-22T10:42:38.383Z,15.60
2023-03-22T10:45:08.372Z,15.47
2023-03-22T10:47:39.214Z,15.45
2023-03-22T10:50:13.245Z,15.49
2023-03-22T10:52:45.597Z,15.65
2023-03-22T10:55:15.184Z,15.84
2023-03-22T10:57:51.598Z,15.83
2023-03-22T11:00:21.028Z,15.89
2023-03-22T11:02:53.116Z,15.70
2023-03-22T11:05:23.292Z,15.89
2023-03-22T11:07:50.483Z,15.78
2023-03-22T11:10:27.382Z,15.89
2023-03-22T11:13:11.926Z,15.71
2023-03-22T11:15:41.741Z,15.72
2023-03-22T11:18:14.093Z,15.90
2023-03-22T11:20:43.775Z,15.92
2023-03-22T11:23:13.167Z,15.77
2023-03-22T11:25:46.339Z,15.93
2023-03-22T11:28:19.193Z,15.73
2023-03-22T11:31:02.552Z,16.07
2023-03-22T11:33:30.982Z,16.17
2023-03-22T11:36:00.383Z,16.25
2023-03-22T11:38:31.220Z,16.30
2023-03-22T11:41:01.571Z,16.43
2023-03-22T11:43:35.740Z,16.49
2023-03-22T11:46:04.233Z,16.70
2023-03-22T11:48:34.036Z,16.82
2023-03-22T11:51:06.693Z,16.63
2023-03-22T11:53:37.082Z,16.84
2023-03-22T11:56:06.773Z,16.70
2023-03-22T11:58:53.285Z,16.97
2023-03-22T12:01:27.697Z,17.18
2023-03-22T12:03:57.115Z,17.24
2023-03-22T12:06:26.899Z,17.45
2023-03-22T12:08:56.538Z,17.34
2023-03-22T12:11:29.089Z,17.55
2023-03-22T12:14:00.660Z,17.46
2023-03-22T12:16:29.185Z,17.71
2023-03-22T12:19:05.128Z,17.41
2023-03-22T12:21:32.352Z,17.15
2023-03-22T12:24:04.114Z,17.37
2023-03-22T12:26:32.996Z,16.82
2023-03-22T12:29:04.848Z,16.93
2023-03-22T12:31:37.091Z,16.71
2023-03-22T12:34:08.558Z,17.08
2023-03-22T12:36:40.820Z,17.29
2023-03-22T12:39:13.049Z,17.15
2023-03-22T12:41:43.992Z,17.20
2023-03-22T12:44:17.603Z,17.13
2023-03-22T12:46:50.692Z,17.05
2023-03-22T12:49:25.980Z,17.21
2023-03-22T12:52:00.272Z,17.40
2023-03-22T12:54:28.279Z,17.57
2023-03-22T12:56:55.886Z,17.58
2023-03-22T12:59:28.735Z,17.47
2023-03-22T13:02:00.309Z,17.44
2023-03-22T13:04:45.433Z,17.38
2023-03-22T13:07:15.690Z,17.38
2023-03-22T13:09:44.021Z,17.37
2023-03-22T13:12:32.787Z,17.70
2023-03-22T13:15:20.602Z,17.64
2023-03-22T13:17:49.301Z,17.69
2023-03-22T13:20:23.584Z,17.70
2023-03-22T13:23:26.683Z,17.61
2023-03-22T13:26:04.976Z,17.53
2023-03-22T13:28:32.899Z,17.77
2023-03-22T13:31:01.527Z,17.67
2023-03-22T13:33:30.948Z,17.87
2023-03-22T13:36:00.503Z,18.14
2023-03-22T13:38:30.161Z,17.91
2023-03-22T13:41:01.199Z,18.19
2023-03-22T13:43:32.028Z,18.30
2023-03-22T13:46:14.244Z,18.18
2023-03-22T13:48:51.506Z,18.29
2023-03-22T13:51:22.325Z,18.22
2023-03-22T13:53:57.755Z,18.35
2023-03-22T13:56:32.321Z,18.36
2023-03-22T13:59:00.483Z,18.32
2023-03-22T14:01:32.303Z,18.46
2023-03-22T14:04:02.415Z,18.41
2023-03-22T14:06:32.796Z,17.94
2023-03-22T14:09:03.275Z,18.07
2023-03-22T14:11:39.493Z,17.85
2023-03-22T14:14:12.487Z,18.00
2023-03-22T14:16:45.291Z,18.06
2023-03-22T14:19:18.202Z,18.03
